sensor_id;sensor_type;location;lat;lon;timestamp;noise_LAeq;noise_LA_min;noise_LA_max;noise_LA01;noise_LA95
51665;Laerm;37751;52.408;12.536;2023-11-19T00:01:48;53.29;40.51;65.90;;
51665;Laerm;37751;52.408;12.536;2023-11-19T00:04:20;53.97;37.43;65.99;;
51665;Laerm;37751;52.408;12.536;2023-11-19T00:06:52;49.66;35.48;68.28;;
51665;Laerm;37751;52.408;12.536;2023-11-19T00:09:23;51.02;35.70;65.80;;
51665;Laerm;37751;52.408;12.536;2023-11-19T00:11:57;55.79;36.12;68.55;;
51665;Laerm;37751;52.408;12.536;2023-11-19T00:14:29;54.91;41.79;66.96;;
51665;Laerm;37751;52.408;12.536;2023-11-19T00:17:00;53.76;38.57;66.11;;
51665;Laerm;37751;52.408;12.536;2023-11-19T00:19:32;53.05;37.45;67.00;;
51665;Laerm;37751;52.408;12.536;2023-11-19T00:22:03;52.42;32.82;65.06;;
51665;Laerm;37751;52.408;12.536;2023-11-19T00:24:35;48.26;35.72;64.58;;
51665;Laerm;37751;52.408;12.536;2023-11-19T00:27:10;51.33;37.80;65.78;;
51665;Laerm;37751;52.408;12.536;2023-11-19T00:29:42;51.37;36.29;65.27;;
51665;Laerm;37751;52.408;12.536;2023-11-19T00:32:14;49.37;35.68;66.32;;
51665;Laerm;37751;52.408;12.536;2023-11-19T00:34:47;48.38;33.46;63.74;;
51665;Laerm;37751;52.408;12.536;2023-11-19T00:37:18;52.85;34.51;64.35;;
51665;Laerm;37751;52.408;12.536;2023-11-19T00:39:50;49.51;34.94;65.45;;
51665;Laerm;37751;52.408;12.536;2023-11-19T00:42:24;49.35;33.47;63.14;;
51665;Laerm;37751;52.408;12.536;2023-11-19T00:44:56;43.88;36.79;54.30;;
51665;Laerm;37751;52.408;12.536;2023-11-19T00:47:31;51.59;39.23;64.17;;
51665;Laerm;37751;52.408;12.536;2023-11-19T00:50:03;51.30;40.19;66.39;;
51665;Laerm;37751;52.408;12.536;2023-11-19T00:52:38;50.80;35.68;66.08;;
51665;Laerm;37751;52.408;12.536;2023-11-19T00:55:13;49.71;35.94;66.78;;
51665;Laerm;37751;52.408;12.536;2023-11-19T00:57:48;51.79;38.24;63.46;;
51665;Laerm;37751;52.408;12.536;2023-11-19T01:00:19;53.07;35.22;66.90;;
51665;Laerm;37751;52.408;12.536;2023-11-19T01:02:52;50.76;34.49;65.55;;
51665;Laerm;37751;52.408;12.536;2023-11-19T01:05:24;49.13;36.49;65.31;;
51665;Laerm;37751;52.408;12.536;2023-11-19T01:07:56;54.14;37.17;69.49;;
51665;Laerm;37751;52.408;12.536;2023-11-19T01:10:28;53.05;40.41;68.88;;
51665;Laerm;37751;52.408;12.536;2023-11-19T01:13:03;54.83;41.19;72.05;;
51665;Laerm;37751;52.408;12.536;2023-11-19T01:15:34;48.52;38.44;60.97;;
51665;Laerm;37751;52.408;12.536;2023-11-19T01:18:06;53.62;36.28;68.37;;
51665;Laerm;37751;52.408;12.536;2023-11-19T01:20:43;51.38;34.72;67.82;;
51665;Laerm;37751;52.408;12.536;2023-11-19T01:23:14;53.27;34.73;64.53;;
51665;Laerm;37751;52.408;12.536;2023-11-19T01:25:45;44.19;33.96;61.96;;
51665;Laerm;37751;52.408;12.536;2023-11-19T01:28:20;50.59;34.98;69.40;;
51665;Laerm;37751;52.408;12.536;2023-11-19T01:30:52;42.92;34.65;61.52;;
51665;Laerm;37751;52.408;12.536;2023-11-19T01:33:23;51.75;38.08;67.10;;
51665;Laerm;37751;52.408;12.536;2023-11-19T01:35:56;50.04;37.76;63.26;;
51665;Laerm;37751;52.408;12.536;2023-11-19T01:38:27;44.98;35.59;61.54;;
51665;Laerm;37751;52.408;12.536;2023-11-19T01:40:59;51.85;37.03;66.78;;
51665;Laerm;37751;52.408;12.536;2023-11-19T01:43:38;51.51;37.14;65.33;;
51665;Laerm;37751;52.408;12.536;2023-11-19T01:46:13;45.12;36.59;65.58;;
51665;Laerm;37751;52.408;12.536;2023-11-19T01:48:46;48.33;35.56;63.95;;
51665;Laerm;37751;52.408;12.536;2023-11-19T01:51:18;53.07;38.17;68.92;;
51665;Laerm;37751;52.408;12.536;2023-11-19T01:53:49;45.70;33.95;63.64;;
51665;Laerm;37751;52.408;12.536;2023-11-19T01:56:22;49.54;34.77;63.28;;
51665;Laerm;37751;52.408;12.536;2023-11-19T01:58:57;54.90;36.78;67.52;;
51665;Laerm;37751;52.408;12.536;2023-11-19T02:01:29;56.80;38.69;73.06;;
51665;Laerm;37751;52.408;12.536;2023-11-19T02:04:03;53.68;36.31;70.61;;
51665;Laerm;37751;52.408;12.536;2023-11-19T02:06:37;49.29;36.41;61.23;;
51665;Laerm;37751;52.408;12.536;2023-11-19T02:09:10;54.03;37.64;68.88;;
51665;Laerm;37751;52.408;12.536;2023-11-19T02:11:45;48.86;35.91;60.86;;
51665;Laerm;37751;52.408;12.536;2023-11-19T02:14:25;53.01;40.14;70.35;;
51665;Laerm;37751;52.408;12.536;2023-11-19T02:16:57;49.76;35.78;67.22;;
51665;Laerm;37751;52.408;12.536;2023-11-19T02:19:28;53.09;35.56;67.07;;
51665;Laerm;37751;52.408;12.536;2023-11-19T02:22:00;54.89;34.89;69.67;;
51665;Laerm;37751;52.408;12.536;2023-11-19T02:24:33;46.32;34.30;64.30;;
51665;Laerm;37751;52.408;12.536;2023-11-19T02:27:13;55.33;34.43;69.39;;
51665;Laerm;37751;52.408;12.536;2023-11-19T02:29:49;57.93;35.67;69.72;;
51665;Laerm;37751;52.408;12.536;2023-11-19T02:32:21;50.92;37.26;69.01;;
51665;Laerm;37751;52.408;12.536;2023-11-19T02:34:55;49.21;39.97;66.50;;
51665;Laerm;37751;52.408;12.536;2023-11-19T02:37:34;54.42;42.22;66.97;;
51665;Laerm;37751;52.408;12.536;2023-11-19T02:40:07;52.71;39.14;68.03;;
51665;Laerm;37751;52.408;12.536;2023-11-19T02:42:41;53.31;39.24;68.85;;
51665;Laerm;37751;52.408;12.536;2023-11-19T02:45:15;52.69;42.83;68.31;;
51665;Laerm;37751;52.408;12.536;2023-11-19T02:47:47;51.29;43.24;67.96;;
51665;Laerm;37751;52.408;12.536;2023-11-19T02:50:20;53.62;41.32;69.24;;
51665;Laerm;37751;52.408;12.536;2023-11-19T02:52:55;56.87;47.97;71.14;;
51665;Laerm;37751;52.408;12.536;2023-11-19T02:55:28;57.82;48.13;71.79;;
51665;Laerm;37751;52.408;12.536;2023-11-19T02:58:06;54.45;44.98;70.51;;
51665;Laerm;37751;52.408;12.536;2023-11-19T03:00:51;52.69;43.77;70.15;;
51665;Laerm;37751;52.408;12.536;2023-11-19T03:03:29;56.30;40.76;71.04;;
51665;Laerm;37751;52.408;12.536;2023-11-19T03:06:07;53.89;40.87;64.50;;
51665;Laerm;37751;52.408;12.536;2023-11-19T03:08:39;48.64;35.79;68.55;;
51665;Laerm;37751;52.408;12.536;2023-11-19T03:11:10;49.38;35.90;68.50;;
51665;Laerm;37751;52.408;12.536;2023-11-19T03:13:42;47.48;35.66;67.78;;
51665;Laerm;37751;52.408;12.536;2023-11-19T03:16:17;53.85;39.73;68.59;;
51665;Laerm;37751;52.408;12.536;2023-11-19T03:18:49;52.56;39.80;68.81;;
51665;Laerm;37751;52.408;12.536;2023-11-19T03:21:28;54.69;44.62;71.36;;
51665;Laerm;37751;52.408;12.536;2023-11-19T03:23:59;55.08;46.01;65.70;;
51665;Laerm;37751;52.408;12.536;2023-11-19T03:26:31;54.39;43.16;72.05;;
51665;Laerm;37751;52.408;12.536;2023-11-19T03:29:03;51.13;39.22;69.35;;
51665;Laerm;37751;52.408;12.536;2023-11-19T03:31:42;52.43;39.52;68.59;;
51665;Laerm;37751;52.408;12.536;2023-11-19T03:34:13;51.44;36.78;72.65;;
51665;Laerm;37751;52.408;12.536;2023-11-19T03:36:45;50.21;38.72;63.79;;
51665;Laerm;37751;52.408;12.536;2023-11-19T03:39:17;52.48;34.20;69.01;;
51665;Laerm;37751;52.408;12.536;2023-11-19T03:41:48;51.93;34.82;69.25;;
51665;Laerm;37751;52.408;12.536;2023-11-19T03:44:19;47.25;33.50;59.39;;
51665;Laerm;37751;52.408;12.536;2023-11-19T03:46:53;56.32;36.61;71.49;;
51665;Laerm;37751;52.408;12.536;2023-11-19T03:49:25;50.39;33.37;65.61;;
51665;Laerm;37751;52.408;12.536;2023-11-19T03:51:56;49.73;32.57;70.21;;
51665;Laerm;37751;52.408;12.536;2023-11-19T03:54:28;55.43;38.13;68.45;;
51665;Laerm;37751;52.408;12.536;2023-11-19T03:57:01;54.33;34.57;68.25;;
51665;Laerm;37751;52.408;12.536;2023-11-19T03:59:33;56.58;40.41;69.67;;
51665;Laerm;37751;52.408;12.536;2023-11-19T04:02:07;55.27;45.13;68.83;;
51665;Laerm;37751;52.408;12.536;2023-11-19T04:04:38;56.17;45.42;70.77;;
51665;Laerm;37751;52.408;12.536;2023-11-19T04:07:10;55.48;41.53;68.95;;
51665;Laerm;37751;52.408;12.536;2023-11-19T04:09:41;57.84;41.75;69.89;;
51665;Laerm;37751;52.408;12.536;2023-11-19T04:12:14;54.56;39.79;70.05;;
51665;Laerm;37751;52.408;12.536;2023-11-19T04:14:46;54.10;36.81;69.54;;
51665;Laerm;37751;52.408;12.536;2023-11-19T04:17:31;57.10;43.80;68.81;;
51665;Laerm;37751;52.408;12.536;2023-11-19T04:20:03;58.57;47.17;72.20;;
51665;Laerm;37751;52.408;12.536;2023-11-19T04:22:38;55.94;42.40;73.96;;
51665;Laerm;37751;52.408;12.536;2023-11-19T04:25:10;56.85;46.67;71.79;;
51665;Laerm;37751;52.408;12.536;2023-11-19T04:27:43;56.80;48.21;69.64;;
51665;Laerm;37751;52.408;12.536;2023-11-19T04:30:16;57.69;46.54;72.00;;
51665;Laerm;37751;52.408;12.536;2023-11-19T04:32:50;57.62;40.86;73.62;;
51665;Laerm;37751;52.408;12.536;2023-11-19T04:35:21;56.55;42.57;68.23;;
51665;Laerm;37751;52.408;12.536;2023-11-19T04:37:54;56.11;40.52;70.15;;
51665;Laerm;37751;52.408;12.536;2023-11-19T04:40:26;52.97;35.09;69.46;;
51665;Laerm;37751;52.408;12.536;2023-11-19T04:42:58;54.59;42.62;69.51;;
51665;Laerm;37751;52.408;12.536;2023-11-19T04:45:29;57.18;44.90;70.31;;
51665;Laerm;37751;52.408;12.536;2023-11-19T04:48:03;56.70;40.97;68.42;;
51665;Laerm;37751;52.408;12.536;2023-11-19T04:50:36;53.80;40.94;67.34;;
51665;Laerm;37751;52.408;12.536;2023-11-19T04:53:08;54.64;42.24;70.97;;
51665;Laerm;37751;52.408;12.536;2023-11-19T04:55:39;56.48;39.60;70.09;;
51665;Laerm;37751;52.408;12.536;2023-11-19T04:58:11;55.60;43.01;66.34;;
51665;Laerm;37751;52.408;12.536;2023-11-19T05:00:43;60.07;49.27;70.48;;
51665;Laerm;37751;52.408;12.536;2023-11-19T05:03:17;56.67;49.89;70.91;;
51665;Laerm;37751;52.408;12.536;2023-11-19T05:05:49;57.44;49.04;70.17;;
51665;Laerm;37751;52.408;12.536;2023-11-19T05:08:20;56.15;47.05;66.69;;
51665;Laerm;37751;52.408;12.536;2023-11-19T05:10:51;56.64;48.96;67.67;;
51665;Laerm;37751;52.408;12.536;2023-11-19T05:13:22;59.90;51.00;73.96;;
51665;Laerm;37751;52.408;12.536;2023-11-19T05:15:54;58.52;49.88;70.23;;
51665;Laerm;37751;52.408;12.536;2023-11-19T05:18:28;58.22;49.58;69.33;;
51665;Laerm;37751;52.408;12.536;2023-11-19T05:20:59;56.12;48.53;72.47;;
51665;Laerm;37751;52.408;12.536;2023-11-19T05:23:30;59.50;52.64;72.85;;
51665;Laerm;37751;52.408;12.536;2023-11-19T05:26:03;57.91;48.33;68.17;;
51665;Laerm;37751;52.408;12.536;2023-11-19T05:28:37;56.42;50.23;68.01;;
51665;Laerm;37751;52.408;12.536;2023-11-19T05:31:08;61.50;52.20;76.04;;
51665;Laerm;37751;52.408;12.536;2023-11-19T05:33:43;56.05;50.08;70.58;;
51665;Laerm;37751;52.408;12.536;2023-11-19T05:36:15;60.35;46.80;73.36;;
51665;Laerm;37751;52.408;12.536;2023-11-19T05:38:46;57.55;44.67;72.65;;
51665;Laerm;37751;52.408;12.536;2023-11-19T05:41:17;57.18;44.68;71.23;;
51665;Laerm;37751;52.408;12.536;2023-11-19T05:43:49;55.32;44.34;68.84;;
51665;Laerm;37751;52.408;12.536;2023-11-19T05:46:20;56.77;46.51;69.02;;
51665;Laerm;37751;52.408;12.536;2023-11-19T05:48:56;58.04;46.50;69.84;;
51665;Laerm;37751;52.408;12.536;2023-11-19T05:51:28;50.92;42.83;65.54;;
51665;Laerm;37751;52.408;12.536;2023-11-19T05:53:59;54.99;42.64;68.51;;
51665;Laerm;37751;52.408;12.536;2023-11-19T05:56:31;56.45;45.72;70.02;;
51665;Laerm;37751;52.408;12.536;2023-11-19T05:59:03;54.52;45.01;70.87;;
51665;Laerm;37751;52.408;12.536;2023-11-19T06:01:37;52.17;42.48;67.05;;
51665;Laerm;37751;52.408;12.536;2023-11-19T06:04:12;55.68;40.51;71.48;;
51665;Laerm;37751;52.408;12.536;2023-11-19T06:06:44;54.55;40.30;67.54;;
51665;Laerm;37751;52.408;12.536;2023-11-19T06:09:15;56.33;42.84;68.88;;
51665;Laerm;37751;52.408;12.536;2023-11-19T06:11:46;58.83;45.49;73.79;;
51665;Laerm;37751;52.408;12.536;2023-11-19T06:14:19;56.19;41.26;71.43;;
51665;Laerm;37751;52.408;12.536;2023-11-19T06:16:52;56.94;43.43;71.95;;
51665;Laerm;37751;52.408;12.536;2023-11-19T06:19:26;59.30;45.74;71.01;;
51665;Laerm;37751;52.408;12.536;2023-11-19T06:21:58;53.69;41.48;68.27;;
51665;Laerm;37751;52.408;12.536;2023-11-19T06:24:29;54.76;40.46;72.65;;
51665;Laerm;37751;52.408;12.536;2023-11-19T06:27:00;52.79;39.24;67.69;;
51665;Laerm;37751;52.408;12.536;2023-11-19T06:29:32;55.95;41.99;70.45;;
51665;Laerm;37751;52.408;12.536;2023-11-19T06:32:05;54.73;39.89;67.89;;
51665;Laerm;37751;52.408;12.536;2023-11-19T06:34:42;50.79;39.28;63.79;;
51665;Laerm;37751;52.408;12.536;2023-11-19T06:37:13;58.30;42.12;75.59;;
51665;Laerm;37751;52.408;12.536;2023-11-19T06:39:45;53.04;40.31;64.87;;
51665;Laerm;37751;52.408;12.536;2023-11-19T06:42:17;52.57;41.50;67.95;;
51665;Laerm;37751;52.408;12.536;2023-11-19T06:44:48;55.15;39.61;69.28;;
51665;Laerm;37751;52.408;12.536;2023-11-19T06:47:20;56.13;39.80;69.87;;
51665;Laerm;37751;52.408;12.536;2023-11-19T06:49:55;56.86;42.64;69.99;;
51665;Laerm;37751;52.408;12.536;2023-11-19T06:52:26;56.86;40.72;66.67;;
51665;Laerm;37751;52.408;12.536;2023-11-19T06:54:58;53.91;40.58;67.50;;
51665;Laerm;37751;52.408;12.536;2023-11-19T06:57:33;55.42;41.77;70.33;;
51665;Laerm;37751;52.408;12.536;2023-11-19T07:00:06;55.22;40.87;66.91;;
51665;Laerm;37751;52.408;12.536;2023-11-19T07:02:39;52.83;39.36;66.26;;
51665;Laerm;37751;52.408;12.536;2023-11-19T07:05:15;55.61;40.46;67.72;;
51665;Laerm;37751;52.408;12.536;2023-11-19T07:07:47;53.80;42.85;67.54;;
51665;Laerm;37751;52.408;12.536;2023-11-19T07:10:18;53.51;41.95;64.98;;
51665;Laerm;37751;52.408;12.536;2023-11-19T07:12:50;57.46;41.12;69.29;;
51665;Laerm;37751;52.408;12.536;2023-11-19T07:15:21;59.42;40.61;74.61;;
51665;Laerm;37751;52.408;12.536;2023-11-19T07:17:53;69.42;42.56;89.88;;
51665;Laerm;37751;52.408;12.536;2023-11-19T07:20:32;55.29;45.57;66.44;;
51665;Laerm;37751;52.408;12.536;2023-11-19T07:23:10;55.14;43.98;68.02;;
51665;Laerm;37751;52.408;12.536;2023-11-19T07:25:42;57.39;44.98;69.62;;
51665;Laerm;37751;52.408;12.536;2023-11-19T07:28:14;55.12;41.84;64.86;;
51665;Laerm;37751;52.408;12.536;2023-11-19T07:30:46;56.38;43.07;67.13;;
51665;Laerm;37751;52.408;12.536;2023-11-19T07:33:17;58.89;45.12;71.83;;
51665;Laerm;37751;52.408;12.536;2023-11-19T07:35:52;57.29;43.11;68.97;;
51665;Laerm;37751;52.408;12.536;2023-11-19T07:38:24;57.27;44.54;67.08;;
51665;Laerm;37751;52.408;12.536;2023-11-19T07:40:55;56.52;42.56;66.10;;
51665;Laerm;37751;52.408;12.536;2023-11-19T07:43:27;56.15;42.94;66.08;;
51665;Laerm;37751;52.408;12.536;2023-11-19T07:45:58;55.78;41.00;64.92;;
51665;Laerm;37751;52.408;12.536;2023-11-19T07:48:31;56.09;45.25;65.87;;
51665;Laerm;37751;52.408;12.536;2023-11-19T07:51:07;56.62;45.03;66.02;;
51665;Laerm;37751;52.408;12.536;2023-11-19T07:53:38;59.52;47.02;75.52;;
51665;Laerm;37751;52.408;12.536;2023-11-19T07:56:10;77.05;47.82;94.52;;
51665;Laerm;37751;52.408;12.536;2023-11-19T07:58:44;56.68;42.88;68.17;;
51665;Laerm;37751;52.408;12.536;2023-11-19T08:01:17;59.29;47.20;74.42;;
51665;Laerm;37751;52.408;12.536;2023-11-19T08:03:48;56.59;46.22;64.23;;
51665;Laerm;37751;52.408;12.536;2023-11-19T08:06:26;59.46;46.53;71.43;;
51665;Laerm;37751;52.408;12.536;2023-11-19T08:08:57;57.04;44.30;66.08;;
51665;Laerm;37751;52.408;12.536;2023-11-19T08:11:29;58.22;45.59;68.50;;
51665;Laerm;37751;52.408;12.536;2023-11-19T08:14:01;58.73;44.83;68.02;;
51665;Laerm;37751;52.408;12.536;2023-11-19T08:16:33;58.33;46.48;65.73;;
51665;Laerm;37751;52.408;12.536;2023-11-19T08:19:06;58.01;48.08;68.21;;
51665;Laerm;37751;52.408;12.536;2023-11-19T08:21:40;56.78;44.85;66.23;;
51665;Laerm;37751;52.408;12.536;2023-11-19T08:24:12;55.78;45.31;67.43;;
51665;Laerm;37751;52.408;12.536;2023-11-19T08:26:43;58.67;49.81;65.89;;
51665;Laerm;37751;52.408;12.536;2023-11-19T08:29:29;58.44;44.31;67.27;;
51665;Laerm;37751;52.408;12.536;2023-11-19T08:32:01;58.70;45.64;69.84;;
51665;Laerm;37751;52.408;12.536;2023-11-19T08:34:34;59.31;50.78;67.53;;
51665;Laerm;37751;52.408;12.536;2023-11-19T08:37:08;59.56;44.45;72.00;;
51665;Laerm;37751;52.408;12.536;2023-11-19T08:39:41;58.78;46.59;67.03;;
51665;Laerm;37751;52.408;12.536;2023-11-19T08:42:12;59.45;47.85;69.63;;
51665;Laerm;37751;52.408;12.536;2023-11-19T08:44:43;58.80;48.42;73.41;;
51665;Laerm;37751;52.408;12.536;2023-11-19T08:47:22;58.26;46.93;66.31;;
51665;Laerm;37751;52.408;12.536;2023-11-19T08:49:54;58.68;45.60;67.92;;
51665;Laerm;37751;52.408;12.536;2023-11-19T08:52:32;60.35;49.31;69.01;;
51665;Laerm;37751;52.408;12.536;2023-11-19T08:55:05;59.52;50.34;67.67;;
51665;Laerm;37751;52.408;12.536;2023-11-19T08:57:38;57.97;44.52;66.61;;
51665;Laerm;37751;52.408;12.536;2023-11-19T09:00:10;60.67;43.28;76.33;;
51665;Laerm;37751;52.408;12.536;2023-11-19T09:02:42;69.13;47.25;84.86;;
51665;Laerm;37751;52.408;12.536;2023-11-19T09:05:14;58.13;45.29;69.32;;
51665;Laerm;37751;52.408;12.536;2023-11-19T09:07:49;58.78;48.10;66.87;;
51665;Laerm;37751;52.408;12.536;2023-11-19T09:10:20;60.13;48.06;69.14;;
51665;Laerm;37751;52.408;12.536;2023-11-19T09:12:52;59.09;48.36;67.25;;
51665;Laerm;37751;52.408;12.536;2023-11-19T09:15:25;59.45;44.82;80.82;;
51665;Laerm;37751;52.408;12.536;2023-11-19T09:17:57;59.37;46.70;71.39;;
51665;Laerm;37751;52.408;12.536;2023-11-19T09:20:28;58.62;46.69;70.27;;
51665;Laerm;37751;52.408;12.536;2023-11-19T09:23:09;59.35;46.10;74.28;;
51665;Laerm;37751;52.408;12.536;2023-11-19T09:25:41;58.85;45.27;67.80;;
51665;Laerm;37751;52.408;12.536;2023-11-19T09:28:13;59.31;47.64;70.52;;
51665;Laerm;37751;52.408;12.536;2023-11-19T09:30:45;57.63;45.70;67.20;;
51665;Laerm;37751;52.408;12.536;2023-11-19T09:33:16;58.49;47.62;66.04;;
51665;Laerm;37751;52.408;12.536;2023-11-19T09:35:48;58.40;46.51;67.52;;
51665;Laerm;37751;52.408;12.536;2023-11-19T09:38:24;61.19;46.22;73.44;;
51665;Laerm;37751;52.408;12.536;2023-11-19T09:40:55;58.95;50.58;66.91;;
51665;Laerm;37751;52.408;12.536;2023-11-19T09:43:28;58.91;48.75;65.36;;
51665;Laerm;37751;52.408;12.536;2023-11-19T09:46:03;58.14;46.91;67.13;;
51665;Laerm;37751;52.408;12.536;2023-11-19T09:48:39;58.16;48.91;66.53;;
51665;Laerm;37751;52.408;12.536;2023-11-19T09:51:11;57.54;43.74;64.40;;
51665;Laerm;37751;52.408;12.536;2023-11-19T09:53:45;59.38;50.20;68.67;;
51665;Laerm;37751;52.408;12.536;2023-11-19T09:56:18;58.16;45.91;66.17;;
51665;Laerm;37751;52.408;12.536;2023-11-19T09:58:50;58.85;46.41;66.98;;
51665;Laerm;37751;52.408;12.536;2023-11-19T10:01:21;58.56;45.71;66.25;;
51665;Laerm;37751;52.408;12.536;2023-11-19T10:03:56;59.11;45.92;65.49;;
51665;Laerm;37751;52.408;12.536;2023-11-19T10:06:29;58.87;50.01;69.17;;
51665;Laerm;37751;52.408;12.536;2023-11-19T10:09:03;58.98;46.16;68.52;;
51665;Laerm;37751;52.408;12.536;2023-11-19T10:11:35;59.38;46.14;68.88;;
51665;Laerm;37751;52.408;12.536;2023-11-19T10:14:07;59.91;44.91;69.32;;
51665;Laerm;37751;52.408;12.536;2023-11-19T10:16:39;62.41;47.49;77.62;;
51665;Laerm;37751;52.408;12.536;2023-11-19T10:19:18;60.97;52.97;68.69;;
51665;Laerm;37751;52.408;12.536;2023-11-19T10:21:51;61.49;49.45;73.04;;
51665;Laerm;37751;52.408;12.536;2023-11-19T10:24:34;60.64;49.96;69.52;;
51665;Laerm;37751;52.408;12.536;2023-11-19T10:27:13;67.07;51.09;82.36;;
51665;Laerm;37751;52.408;12.536;2023-11-19T10:29:46;61.39;47.76;70.61;;
51665;Laerm;37751;52.408;12.536;2023-11-19T10:32:17;60.59;47.71;70.01;;
51665;Laerm;37751;52.408;12.536;2023-11-19T10:35:05;61.98;52.46;75.64;;
51665;Laerm;37751;52.408;12.536;2023-11-19T10:37:41;61.02;46.26;68.56;;
51665;Laerm;37751;52.408;12.536;2023-11-19T10:40:15;60.44;48.23;69.12;;
51665;Laerm;37751;52.408;12.536;2023-11-19T10:42:47;62.43;46.89;74.67;;
51665;Laerm;37751;52.408;12.536;2023-11-19T10:45:24;61.13;49.52;69.96;;
51665;Laerm;37751;52.408;12.536;2023-11-19T10:47:56;60.18;46.74;69.31;;
51665;Laerm;37751;52.408;12.536;2023-11-19T10:50:28;60.66;50.38;68.76;;
51665;Laerm;37751;52.408;12.536;2023-11-19T10:53:00;59.40;48.12;67.59;;
51665;Laerm;37751;52.408;12.536;2023-11-19T10:55:37;60.70;46.32;70.47;;
51665;Laerm;37751;52.408;12.536;2023-11-19T10:58:09;62.17;51.62;77.34;;
51665;Laerm;37751;52.408;12.536;2023-11-19T11:00:45;59.73;49.01;68.89;;
51665;Laerm;37751;52.408;12.536;2023-11-19T11:03:19;59.49;46.94;66.87;;
51665;Laerm;37751;52.408;12.536;2023-11-19T11:05:52;60.15;48.67;68.24;;
51665;Laerm;37751;52.408;12.536;2023-11-19T11:08:25;60.44;47.87;68.83;;
51665;Laerm;37751;52.408;12.536;2023-11-19T11:11:00;59.11;49.13;67.39;;
51665;Laerm;37751;52.408;12.536;2023-11-19T11:13:33;59.53;45.78;68.28;;
51665;Laerm;37751;52.408;12.536;2023-11-19T11:16:08;59.73;45.54;66.90;;
51665;Laerm;37751;52.408;12.536;2023-11-19T11:18:40;58.41;49.43;68.59;;
51665;Laerm;37751;52.408;12.536;2023-11-19T11:21:23;59.24;43.50;68.78;;
51665;Laerm;37751;52.408;12.536;2023-11-19T11:24:40;61.09;46.89;72.85;;
51665;Laerm;37751;52.408;12.536;2023-11-19T11:27:48;60.25;47.36;67.09;;
51665;Laerm;37751;52.408;12.536;2023-11-19T11:30:35;58.77;43.83;67.65;;
51665;Laerm;37751;52.408;12.536;2023-11-19T11:33:28;57.80;42.66;66.40;;
51665;Laerm;37751;52.408;12.536;2023-11-19T11:36:13;59.44;45.78;69.93;;
51665;Laerm;37751;52.408;12.536;2023-11-19T11:38:49;60.41;50.26;74.61;;
51665;Laerm;37751;52.408;12.536;2023-11-19T11:41:22;61.16;49.83;70.11;;
51665;Laerm;37751;52.408;12.536;2023-11-19T11:44:02;60.90;47.78;68.36;;
51665;Laerm;37751;52.408;12.536;2023-11-19T11:46:54;61.89;46.78;71.77;;
51665;Laerm;37751;52.408;12.536;2023-11-19T11:49:27;61.66;39.69;71.92;;
51665;Laerm;37751;52.408;12.536;2023-11-19T11:52:04;59.68;45.78;68.20;;
51665;Laerm;37751;52.408;12.536;2023-11-19T11:54:36;60.09;47.02;70.65;;
51665;Laerm;37751;52.408;12.536;2023-11-19T11:57:10;61.93;46.95;70.89;;
51665;Laerm;37751;52.408;12.536;2023-11-19T11:59:51;60.90;49.51;69.74;;
51665;Laerm;37751;52.408;12.536;2023-11-19T12:02:23;59.50;50.18;67.87;;
51665;Laerm;37751;52.408;12.536;2023-11-19T12:04:56;60.84;46.60;68.29;;
51665;Laerm;37751;52.408;12.536;2023-11-19T12:07:29;60.06;46.97;68.29;;
51665;Laerm;37751;52.408;12.536;2023-11-19T12:10:07;60.21;46.97;68.74;;
51665;Laerm;37751;52.408;12.536;2023-11-19T12:12:40;60.74;48.50;70.95;;
51665;Laerm;37751;52.408;12.536;2023-11-19T12:15:14;60.79;48.45;69.95;;
51665;Laerm;37751;52.408;12.536;2023-11-19T12:17:49;63.89;54.06;72.88;;
51665;Laerm;37751;52.408;12.536;2023-11-19T12:20:23;62.83;51.61;74.16;;
51665;Laerm;37751;52.408;12.536;2023-11-19T12:22:57;63.47;48.54;72.46;;
51665;Laerm;37751;52.408;12.536;2023-11-19T12:25:34;61.95;50.04;72.37;;
51665;Laerm;37751;52.408;12.536;2023-11-19T12:28:12;62.03;47.46;71.53;;
51665;Laerm;37751;52.408;12.536;2023-11-19T12:30:48;62.16;50.97;73.52;;
51665;Laerm;37751;52.408;12.536;2023-11-19T12:33:19;60.04;47.28;72.03;;
51665;Laerm;37751;52.408;12.536;2023-11-19T12:35:51;62.05;51.99;69.59;;
51665;Laerm;37751;52.408;12.536;2023-11-19T12:38:24;62.28;51.37;69.64;;
51665;Laerm;37751;52.408;12.536;2023-11-19T12:41:06;59.70;48.14;67.92;;
51665;Laerm;37751;52.408;12.536;2023-11-19T12:43:39;59.57;46.62;67.40;;
51665;Laerm;37751;52.408;12.536;2023-11-19T12:46:24;60.64;47.25;69.21;;
51665;Laerm;37751;52.408;12.536;2023-11-19T12:48:56;60.50;50.08;67.05;;
51665;Laerm;37751;52.408;12.536;2023-11-19T12:51:32;59.87;49.26;70.25;;
51665;Laerm;37751;52.408;12.536;2023-11-19T12:54:04;61.62;48.80;68.61;;
51665;Laerm;37751;52.408;12.536;2023-11-19T12:56:36;60.86;45.86;70.41;;
51665;Laerm;37751;52.408;12.536;2023-11-19T12:59:13;60.92;51.33;68.18;;
51665;Laerm;37751;52.408;12.536;2023-11-19T13:01:57;60.22;47.06;67.72;;
51665;Laerm;37751;52.408;12.536;2023-11-19T13:04:31;60.47;48.17;67.90;;
51665;Laerm;37751;52.408;12.536;2023-11-19T13:07:02;58.36;46.36;65.64;;
51665;Laerm;37751;52.408;12.536;2023-11-19T13:09:35;61.08;48.68;71.53;;
51665;Laerm;37751;52.408;12.536;2023-11-19T13:12:14;60.93;49.47;69.17;;
51665;Laerm;37751;52.408;12.536;2023-11-19T13:14:46;60.20;45.77;71.18;;
51665;Laerm;37751;52.408;12.536;2023-11-19T13:17:20;61.95;47.91;71.58;;
51665;Laerm;37751;52.408;12.536;2023-11-19T13:19:52;61.09;47.77;69.27;;
51665;Laerm;37751;52.408;12.536;2023-11-19T13:22:25;59.50;49.15;65.99;;
51665;Laerm;37751;52.408;12.536;2023-11-19T13:24:57;61.62;51.20;68.84;;
51665;Laerm;37751;52.408;12.536;2023-11-19T13:27:29;65.67;51.55;80.83;;
51665;Laerm;37751;52.408;12.536;2023-11-19T13:30:01;59.93;45.84;68.63;;
51665;Laerm;37751;52.408;12.536;2023-11-19T13:32:56;61.39;51.78;69.05;;
51665;Laerm;37751;52.408;12.536;2023-11-19T13:35:29;60.75;50.42;67.95;;
51665;Laerm;37751;52.408;12.536;2023-11-19T13:38:00;58.13;45.41;66.05;;
51665;Laerm;37751;52.408;12.536;2023-11-19T13:40:32;60.03;47.83;66.70;;
51665;Laerm;37751;52.408;12.536;2023-11-19T13:43:03;60.32;48.39;67.16;;
51665;Laerm;37751;52.408;12.536;2023-11-19T13:45:35;61.02;44.75;77.67;;
51665;Laerm;37751;52.408;12.536;2023-11-19T13:48:10;60.18;49.53;68.76;;
51665;Laerm;37751;52.408;12.536;2023-11-19T13:50:41;61.17;49.53;68.78;;
51665;Laerm;37751;52.408;12.536;2023-11-19T13:53:13;61.07;51.93;67.62;;
51665;Laerm;37751;52.408;12.536;2023-11-19T13:55:44;59.52;47.68;69.50;;
51665;Laerm;37751;52.408;12.536;2023-11-19T13:58:15;60.81;48.01;67.39;;
51665;Laerm;37751;52.408;12.536;2023-11-19T14:00:47;60.71;48.10;72.31;;
51665;Laerm;37751;52.408;12.536;2023-11-19T14:03:21;59.83;48.22;70.01;;
51665;Laerm;37751;52.408;12.536;2023-11-19T14:05:53;61.37;48.62;70.45;;
51665;Laerm;37751;52.408;12.536;2023-11-19T14:08:26;60.22;48.04;73.19;;